createdAt,value
2016-08-29T00:04:47.679Z,61.33
2016-08-29T00:09:44.817Z,61.72
2016-08-29T00:14:41.128Z,61.53
2016-08-29T00:19:37.792Z,61.63
2016-08-29T00:24:34.503Z,61.63
2016-08-29T00:29:31.211Z,62.27
2016-08-29T00:34:27.907Z,62.30
2016-08-29T00:39:24.761Z,61.98
2016-08-29T00:44:21.414Z,61.40
2016-08-29T00:49:18.242Z,61.69
2016-08-29T00:54:14.889Z,61.98
2016-08-29T00:59:11.734Z,61.30
2016-08-29T01:04:08.450Z,61.89
2016-08-29T01:09:05.307Z,61.69
2016-08-29T01:14:02.675Z,61.50
2016-08-29T01:18:59.225Z,61.69
2016-08-29T01:23:55.983Z,61.30
2016-08-29T01:28:52.732Z,61.40
2016-08-29T01:33:49.738Z,61.69
2016-08-29T01:38:46.418Z,61.60
2016-08-29T01:43:43.122Z,61.40
2016-08-29T01:48:40.177Z,61.50
2016-08-29T01:53:37.029Z,61.50
2016-08-29T01:58:33.612Z,61.57
2016-08-29T02:03:30.213Z,61.50
2016-08-29T02:08:26.995Z,61.50
2016-08-29T02:13:26.131Z,61.66
2016-08-29T02:18:22.221Z,61.30
2016-08-29T02:23:18.779Z,61.50
2016-08-29T02:28:17.841Z,61.66
2016-08-29T02:33:13.932Z,61.18
2016-08-29T02:38:10.649Z,61.66
2016-08-29T02:43:07.220Z,61.76
2016-08-29T02:48:04.091Z,61.18
2016-08-29T02:53:01.117Z,61.57
2016-08-29T02:57:57.662Z,61.27
2016-08-29T03:02:54.365Z,61.27
2016-08-29T03:07:51.546Z,62.18
2016-08-29T03:12:48.548Z,61.47
2016-08-29T03:17:45.311Z,61.95
2016-08-29T03:22:42.094Z,62.05
2016-08-29T03:27:38.709Z,61.86
2016-08-29T03:32:35.375Z,62.05
2016-08-29T03:37:31.988Z,61.95
2016-08-29T03:42:28.726Z,61.95
2016-08-29T03:47:25.474Z,61.66
2016-08-29T03:52:23.024Z,61.57
2016-08-29T03:57:19.230Z,61.57
2016-08-29T04:02:15.683Z,61.86
2016-08-29T04:07:14.713Z,61.76
2016-08-29T04:12:10.761Z,62.53
2016-08-29T04:17:08.098Z,62.24
2016-08-29T04:22:04.908Z,62.44
2016-08-29T04:27:01.481Z,62.24
2016-08-29T04:31:58.110Z,62.24
2016-08-29T04:36:54.873Z,62.34
2016-08-29T04:41:51.565Z,62.34
2016-08-29T04:46:48.192Z,62.73
2016-08-29T04:51:44.722Z,62.82
2016-08-29T04:56:41.392Z,63.11
2016-08-29T05:01:37.900Z,63.11
2016-08-29T05:06:34.409Z,63.31
2016-08-29T05:11:31.206Z,63.50
2016-08-29T05:16:27.713Z,63.40
2016-08-29T05:21:24.238Z,63.69
2016-08-29T05:26:21.052Z,63.89
2016-08-29T05:31:17.826Z,63.79
2016-08-29T05:36:14.439Z,65.14
2016-08-29T05:41:11.106Z,64.66
2016-08-29T05:46:07.752Z,64.66
2016-08-29T05:51:04.437Z,65.24
2016-08-29T05:56:00.855Z,64.08
2016-08-29T06:00:57.601Z,64.27
2016-08-29T06:05:54.000Z,64.66
2016-08-29T06:10:50.523Z,64.27
2016-08-29T06:15:47.108Z,64.27
2016-08-29T06:20:43.757Z,65.14
2016-08-29T06:25:41.799Z,65.34
2016-08-29T06:30:38.135Z,65.92
2016-08-29T06:35:35.416Z,66.30
2016-08-29T06:40:32.234Z,67.52
2016-08-29T06:45:29.483Z,67.43
2016-08-29T06:50:26.214Z,67.94
2016-08-29T06:55:25.371Z,68.04
2016-08-29T07:00:21.504Z,67.36
2016-08-29T07:05:18.214Z,68.14
2016-08-29T07:10:14.939Z,68.24
2016-08-29T07:15:11.642Z,66.82
2016-08-29T07:20:08.281Z,66.82
2016-08-29T07:25:04.974Z,67.05
2016-08-29T07:30:01.527Z,65.30
2016-08-29T07:34:58.662Z,65.98
2016-08-29T07:39:55.303Z,66.37
2016-08-29T07:44:52.068Z,65.30
2016-08-29T07:49:48.793Z,63.89
2016-08-29T07:54:45.892Z,63.98
2016-08-29T07:59:42.592Z,64.37
2016-08-29T08:04:39.142Z,65.40
2016-08-29T08:09:35.580Z,65.30
2016-08-29T08:14:32.352Z,65.88
2016-08-29T08:19:29.037Z,65.50
2016-08-29T08:24:25.724Z,64.95
2016-08-29T08:29:23.090Z,63.98
2016-08-29T08:34:19.625Z,63.59
2016-08-29T08:39:16.758Z,62.95
2016-08-29T08:44:13.807Z,63.01
2016-08-29T08:49:10.229Z,61.69
2016-08-29T08:54:07.798Z,61.43
2016-08-29T08:59:04.401Z,61.49
2016-08-29T09:04:00.362Z,62.72
2016-08-29T09:08:56.808Z,63.76
2016-08-29T09:13:53.256Z,62.79
2016-08-29T09:18:51.545Z,63.18
2016-08-29T09:23:47.801Z,62.82
2016-08-29T09:28:44.534Z,62.53
2016-08-29T09:33:41.210Z,62.34
2016-08-29T09:38:38.055Z,62.24
2016-08-29T09:43:34.716Z,62.43
2016-08-29T09:48:31.544Z,61.66
2016-08-29T09:53:28.580Z,60.69
2016-08-29T09:58:25.447Z,60.01
2016-08-29T10:03:22.104Z,59.14
2016-08-29T10:08:18.695Z,58.78
2016-08-29T10:13:15.470Z,58.27
2016-08-29T10:18:12.548Z,57.11
2016-08-29T10:23:09.333Z,57.62
2016-08-29T10:28:05.777Z,57.59
2016-08-29T10:33:02.551Z,57.01
2016-08-29T10:37:59.308Z,56.26
2016-08-29T10:42:55.925Z,55.40
2016-08-29T10:47:53.466Z,54.71
2016-08-29T10:52:49.834Z,55.04
2016-08-29T10:57:46.525Z,53.49
2016-08-29T11:02:43.189Z,53.67
2016-08-29T11:07:40.972Z,53.39
2016-08-29T11:12:37.563Z,53.17
2016-08-29T11:17:35.172Z,53.45
2016-08-29T11:22:31.559Z,52.97
2016-08-29T11:27:28.243Z,52.58
2016-08-29T11:32:25.009Z,51.25
2016-08-29T11:37:22.108Z,51.35
2016-08-29T11:42:18.896Z,50.96
2016-08-29T11:47:17.003Z,50.96
2016-08-29T11:52:13.437Z,50.02
2016-08-29T11:57:10.117Z,50.57
2016-08-29T12:02:07.005Z,49.80
2016-08-29T12:07:04.124Z,49.61
2016-08-29T12:12:00.743Z,49.51
2016-08-29T12:16:57.850Z,49.70
2016-08-29T12:21:54.625Z,50.38
2016-08-29T12:26:51.369Z,49.51
2016-08-29T12:31:47.984Z,48.54
2016-08-29T12:36:44.656Z,49.41
2016-08-29T12:41:41.018Z,49.99
2016-08-29T12:46:37.709Z,51.35
2016-08-29T12:51:34.385Z,53.39
2016-08-29T12:56:31.070Z,52.32
2016-08-29T13:01:27.765Z,50.48
2016-08-29T13:06:24.417Z,50.48
2016-08-29T13:11:21.008Z,50.57
2016-08-29T13:16:17.719Z,50.77
2016-08-29T13:21:14.474Z,50.87
2016-08-29T13:26:11.553Z,50.94
2016-08-29T13:31:08.232Z,51.04
2016-08-29T13:36:04.924Z,51.04
2016-08-29T13:41:02.030Z,50.55
2016-08-29T13:45:59.190Z,50.26
2016-08-29T13:50:55.587Z,50.07
2016-08-29T13:55:52.195Z,50.16
2016-08-29T14:00:48.792Z,49.87
2016-08-29T14:05:45.700Z,49.97
2016-08-29T14:10:42.702Z,50.45
2016-08-29T14:15:39.651Z,49.58
2016-08-29T14:20:36.425Z,50.55
2016-08-29T14:25:33.021Z,49.77
2016-08-29T14:30:30.151Z,50.35
2016-08-29T14:35:26.875Z,50.24
2016-08-29T14:40:24.741Z,51.01
2016-08-29T14:45:20.888Z,51.01
2016-08-29T14:50:18.790Z,51.68
2016-08-29T14:55:15.368Z,52.49
2016-08-29T15:00:12.141Z,52.00
2016-08-29T15:05:08.668Z,51.72
2016-08-29T15:10:05.353Z,52.46
2016-08-29T15:15:04.308Z,52.46
2016-08-29T15:20:00.600Z,52.85
2016-08-29T15:25:02.380Z,53.33
2016-08-29T15:29:58.186Z,53.33
2016-08-29T15:34:54.800Z,53.63
2016-08-29T15:39:51.459Z,53.33
2016-08-29T15:44:48.346Z,53.72
2016-08-29T15:49:47.625Z,53.43
2016-08-29T15:54:43.560Z,53.63
2016-08-29T15:59:41.655Z,53.72
2016-08-29T16:04:37.889Z,54.01
2016-08-29T16:09:34.457Z,53.91
2016-08-29T16:14:31.149Z,53.81
2016-08-29T16:19:28.081Z,53.72
2016-08-29T16:24:24.730Z,53.43
2016-08-29T16:29:21.659Z,53.53
2016-08-29T16:34:18.338Z,53.59
2016-08-29T16:39:14.904Z,53.69
2016-08-29T16:44:11.501Z,53.69
2016-08-29T16:49:08.128Z,54.47
2016-08-29T16:54:04.904Z,53.59
2016-08-29T16:59:01.654Z,53.99
2016-08-29T17:03:58.386Z,53.50
2016-08-29T17:08:55.535Z,54.57
2016-08-29T17:13:52.083Z,54.95
2016-08-29T17:18:48.649Z,55.53
2016-08-29T17:23:45.423Z,55.79
2016-08-29T17:28:42.089Z,55.82
2016-08-29T17:33:38.663Z,55.82
2016-08-29T17:38:34.960Z,55.63
2016-08-29T17:43:32.078Z,55.99
2016-08-29T17:48:28.513Z,56.28
2016-08-29T17:53:25.190Z,56.67
2016-08-29T17:58:21.799Z,56.86
2016-08-29T18:03:18.626Z,56.45
2016-08-29T18:08:15.234Z,56.93
2016-08-29T18:13:12.059Z,56.93
2016-08-29T18:18:08.677Z,57.12
2016-08-29T18:23:05.250Z,57.60
2016-08-29T18:28:02.157Z,57.12
2016-08-29T18:32:58.596Z,57.19
2016-08-29T18:37:55.171Z,57.29
2016-08-29T18:42:51.731Z,56.80
2016-08-29T18:47:48.324Z,58.42
2016-08-29T18:52:45.106Z,59.45
2016-08-29T18:57:41.754Z,59.42
2016-08-29T19:02:41.116Z,59.42
2016-08-29T19:07:42.578Z,59.52
2016-08-29T19:12:38.315Z,59.32
2016-08-29T19:17:37.214Z,59.32
2016-08-29T19:22:33.289Z,59.71
2016-08-29T19:27:29.979Z,58.84
2016-08-29T19:32:26.539Z,59.52
2016-08-29T19:37:23.119Z,59.42
2016-08-29T19:42:19.701Z,59.03
2016-08-29T19:47:16.245Z,59.52
2016-08-29T19:52:12.905Z,59.42
2016-08-29T19:57:09.555Z,59.87
2016-08-29T20:02:07.908Z,59.52
2016-08-29T20:07:04.303Z,59.78
2016-08-29T20:12:00.936Z,59.97
2016-08-29T20:16:57.667Z,60.13
2016-08-29T20:21:54.642Z,60.13
2016-08-29T20:26:51.621Z,60.42
2016-08-29T20:31:48.361Z,59.78
2016-08-29T20:36:45.369Z,58.94
2016-08-29T20:41:42.015Z,58.94
2016-08-29T20:46:38.564Z,59.42
2016-08-29T20:51:35.286Z,59.52
2016-08-29T20:56:32.622Z,59.23
2016-08-29T21:01:29.061Z,59.16
2016-08-29T21:06:26.718Z,59.06
2016-08-29T21:11:23.449Z,59.25
2016-08-29T21:16:20.164Z,60.80
2016-08-29T21:21:16.823Z,59.83
2016-08-29T21:26:13.251Z,60.51
2016-08-29T21:31:10.278Z,60.03
2016-08-29T21:36:06.968Z,59.55
2016-08-29T21:41:03.536Z,59.74
2016-08-29T21:46:00.191Z,58.97
2016-08-29T21:50:56.908Z,59.03
2016-08-29T21:55:53.346Z,58.97
2016-08-29T22:00:50.067Z,59.32
2016-08-29T22:05:47.031Z,59.13
2016-08-29T22:10:43.571Z,58.84
2016-08-29T22:15:40.474Z,58.65
2016-08-29T22:20:38.285Z,58.75
2016-08-29T22:25:34.705Z,58.94
2016-08-29T22:30:31.364Z,58.75
2016-08-29T22:35:28.016Z,59.13
2016-08-29T22:40:24.425Z,58.84
2016-08-29T22:45:22.073Z,58.94
2016-08-29T22:50:18.515Z,58.84
2016-08-29T22:55:14.956Z,59.39
2016-08-29T23:00:11.473Z,60.06
2016-08-29T23:05:08.704Z,59.87
2016-08-29T23:10:05.127Z,60.45
2016-08-29T23:15:03.277Z,60.06
2016-08-29T23:19:59.774Z,59.97
2016-08-29T23:24:56.863Z,59.78
2016-08-29T23:29:53.550Z,59.75
2016-08-29T23:34:50.005Z,60.64
2016-08-29T23:39:46.587Z,59.97
2016-08-29T23:44:43.548Z,60.23
2016-08-29T23:49:40.695Z,60.23
2016-08-29T23:54:37.169Z,60.42
2016-08-29T23:59:34.207Z,59.94
